Time;durP1;ratioP1;P1;durP2;ratioP2;P2;SDS_P1;SDS_P2;PMS_P1;PMS_P2;Temp;Humidity;BMP_temperature;BMP_pressure;BME280_temperature;BME280_humidity;BME280_pressure;Samples;Min_cycle;Max_cycle;Signal;HPM_P1;HPM_P2
2023/07/18 00:00:14;;;;;;;5.83;2.63;;;18.60;1.00;;;;;;5024197;28;20467;-72
2023/07/18 00:02:42;;;;;;;3.70;3.00;;;18.50;1.00;;;;;;5029181;28;20955;-73
2023/07/18 00:05:12;;;;;;;2.87;1.93;;;18.50;1.00;;;;;;5024422;28;20478;-71
2023/07/18 00:07:41;;;;;;;3.33;3.03;;;18.40;1.00;;;;;;5019895;28;20454;-72
2023/07/18 00:10:09;;;;;;;3.30;2.53;;;18.30;1.00;;;;;;5024268;28;20834;-72
2023/07/18 00:12:36;;;;;;;2.80;2.60;;;18.30;1.00;;;;;;5026901;28;20466;-72
2023/07/18 00:15:05;;;;;;;3.80;3.40;;;18.30;1.00;;;;;;5024046;28;20477;-74
2023/07/18 00:17:33;;;;;;;3.30;2.30;;;18.30;1.00;;;;;;5023814;28;20505;-73
2023/07/18 00:20:00;;;;;;;3.37;2.63;;;18.30;1.00;;;;;;5025023;28;20458;-72
2023/07/18 00:22:27;;;;;;;2.80;2.43;;;18.30;1.00;;;;;;5022787;28;20458;-72
2023/07/18 00:24:55;;;;;;;3.03;2.60;;;18.30;1.00;;;;;;5026431;28;20560;-73
2023/07/18 00:27:22;;;;;;;4.20;2.87;;;18.20;1.00;;;;;;5027176;28;20454;-72
2023/07/18 00:29:50;;;;;;;3.07;2.40;;;18.20;1.00;;;;;;5026402;28;20529;-73
2023/07/18 00:32:17;;;;;;;4.20;2.80;;;18.20;1.00;;;;;;5027407;28;26246;-73
2023/07/18 00:34:44;;;;;;;3.47;2.27;;;18.20;1.00;;;;;;5028267;28;20470;-72
2023/07/18 00:37:11;;;;;;;4.40;2.70;;;18.10;1.00;;;;;;5028445;28;20537;-72
2023/07/18 00:39:38;;;;;;;3.20;2.90;;;18.10;1.00;;;;;;5029121;28;20462;-73
2023/07/18 00:42:07;;;;;;;5.57;3.20;;;18.00;1.00;;;;;;5027250;28;20798;-72
2023/07/18 00:44:34;;;;;;;3.90;2.70;;;17.90;1.00;;;;;;5026594;28;20493;-73
2023/07/18 00:47:02;;;;;;;3.90;2.63;;;18.00;1.00;;;;;;5023292;28;21072;-73
2023/07/18 00:49:29;;;;;;;2.90;2.43;;;17.90;1.00;;;;;;5026237;28;20474;-75
2023/07/18 00:51:57;;;;;;;4.30;3.00;;;17.90;1.00;;;;;;5027204;28;20470;-75
2023/07/18 00:54:25;;;;;;;3.53;2.80;;;17.80;1.00;;;;;;5025411;28;20949;-75
2023/07/18 00:56:52;;;;;;;3.27;2.97;;;17.70;1.00;;;;;;5024976;28;20457;-76
2023/07/18 00:59:22;;;;;;;2.80;2.50;;;17.80;1.00;;;;;;5024676;28;20551;-76
2023/07/18 01:01:49;;;;;;;3.40;3.07;;;17.70;1.00;;;;;;5026192;28;20585;-72
2023/07/18 01:04:18;;;;;;;3.03;2.73;;;17.70;1.00;;;;;;5008303;22;20552;-74
2023/07/18 01:06:46;;;;;;;7.03;2.83;;;17.70;1.00;;;;;;5016074;28;20537;-74
2023/07/18 01:09:13;;;;;;;3.03;2.73;;;17.60;1.00;;;;;;5020517;28;20469;-74
2023/07/18 01:11:40;;;;;;;3.80;2.93;;;17.60;1.00;;;;;;5019253;28;20485;-74
2023/07/18 01:14:06;;;;;;;4.60;2.80;;;17.60;1.00;;;;;;5019790;28;20494;-74
2023/07/18 01:16:35;;;;;;;3.67;2.50;;;17.50;1.00;;;;;;5022031;28;20622;-74
2023/07/18 01:19:02;;;;;;;2.87;2.53;;;17.50;1.00;;;;;;5018206;28;20551;-74
2023/07/18 01:21:30;;;;;;;3.90;2.70;;;17.50;1.00;;;;;;5015105;28;20457;-74
2023/07/18 01:23:57;;;;;;;4.70;3.00;;;17.40;1.00;;;;;;5021148;28;20465;-73
2023/07/18 01:26:24;;;;;;;3.20;2.90;;;17.40;1.00;;;;;;5016048;28;20469;-72
2023/07/18 01:28:51;;;;;;;3.40;2.90;;;17.40;1.00;;;;;;5020400;28;20466;-73
2023/07/18 01:31:20;;;;;;;2.90;2.60;;;17.40;1.00;;;;;;5020489;28;20931;-74
2023/07/18 01:33:47;;;;;;;3.03;2.83;;;17.30;1.00;;;;;;5020062;28;20556;-72
2023/07/18 01:36:15;;;;;;;2.80;2.60;;;17.40;1.00;;;;;;5016826;28;21948;-74
2023/07/18 01:38:43;;;;;;;3.20;2.90;;;17.30;1.00;;;;;;5021398;28;20618;-72
2023/07/18 01:41:10;;;;;;;3.07;2.50;;;17.30;1.00;;;;;;5018305;28;20553;-74
2023/07/18 01:43:37;;;;;;;3.60;3.27;;;17.30;1.00;;;;;;5021455;28;20935;-74
2023/07/18 01:46:04;;;;;;;3.77;2.60;;;17.20;1.00;;;;;;5021613;28;20461;-74
2023/07/18 01:48:32;;;;;;;2.97;2.67;;;17.20;1.00;;;;;;5022671;28;20472;-73
2023/07/18 01:50:59;;;;;;;4.00;2.90;;;17.20;1.00;;;;;;5019872;28;20481;-73
2023/07/18 01:53:27;;;;;;;3.07;2.63;;;17.10;1.00;;;;;;5022275;28;20551;-73
2023/07/18 01:55:57;;;;;;;3.33;3.03;;;17.10;1.00;;;;;;5018522;28;20466;-73
2023/07/18 01:58:24;;;;;;;3.80;2.43;;;17.10;1.00;;;;;;5021913;28;20965;-73
2023/07/18 02:00:51;;;;;;;3.17;2.83;;;17.10;1.00;;;;;;5022227;28;20473;-73
2023/07/18 02:03:18;;;;;;;4.60;2.77;;;17.10;1.00;;;;;;5019314;28;20478;-73
2023/07/18 02:05:45;;;;;;;3.87;2.67;;;17.10;1.00;;;;;;5017794;28;20457;-73
2023/07/18 02:08:11;;;;;;;2.93;2.37;;;17.10;1.00;;;;;;5017841;28;20489;-73
2023/07/18 02:10:38;;;;;;;3.00;2.70;;;17.10;1.00;;;;;;5022968;28;20592;-73
2023/07/18 02:13:07;;;;;;;3.00;2.70;;;17.00;1.00;;;;;;5016679;28;20520;-73
2023/07/18 02:15:34;;;;;;;3.83;3.17;;;17.00;1.00;;;;;;5021502;28;21010;-73
2023/07/18 02:18:01;;;;;;;4.17;3.00;;;16.90;1.00;;;;;;5020718;28;21280;-73
2023/07/18 02:20:28;;;;;;;4.17;2.90;;;16.90;1.00;;;;;;5022196;28;20465;-73
2023/07/18 02:22:55;;;;;;;4.30;3.23;;;16.80;1.00;;;;;;5019387;28;20488;-73
2023/07/18 02:25:23;;;;;;;4.53;3.70;;;16.80;1.00;;;;;;5019765;28;20901;-73
2023/07/18 02:27:49;;;;;;;3.93;3.53;;;16.70;1.00;;;;;;5020361;28;20548;-74
2023/07/18 02:30:18;;;;;;;3.60;3.00;;;16.70;1.00;;;;;;5018351;28;20504;-73
2023/07/18 02:32:45;;;;;;;6.40;3.43;;;16.60;1.00;;;;;;5022457;28;20476;-73
2023/07/18 02:35:17;;;;;;;6.27;3.40;;;16.70;1.00;;;;;;5020160;28;20979;-73
2023/07/18 02:37:45;;;;;;;3.73;3.30;;;16.70;1.00;;;;;;5021426;28;20468;-73
2023/07/18 02:40:12;;;;;;;3.23;2.93;;;16.60;1.00;;;;;;5018986;28;20532;-74
2023/07/18 02:42:40;;;;;;;4.60;3.60;;;16.60;1.00;;;;;;5016542;28;20481;-73
2023/07/18 02:45:08;;;;;;;3.80;2.87;;;16.60;1.00;;;;;;5020726;28;20523;-73
2023/07/18 02:47:37;;;;;;;6.40;3.67;;;16.50;1.00;;;;;;5021061;28;20555;-73
2023/07/18 02:50:05;;;;;;;4.20;2.90;;;16.40;1.00;;;;;;5025335;28;20479;-73
2023/07/18 02:52:32;;;;;;;3.80;2.87;;;16.40;1.00;;;;;;5022623;28;20480;-72
2023/07/18 02:54:59;;;;;;;4.07;3.40;;;16.30;1.00;;;;;;5021876;28;20460;-73
2023/07/18 02:57:26;;;;;;;5.13;3.70;;;16.30;1.00;;;;;;5023315;28;20475;-74
2023/07/18 02:59:53;;;;;;;3.80;3.20;;;16.30;1.00;;;;;;5022217;28;20478;-73
2023/07/18 03:02:21;;;;;;;3.50;3.20;;;16.30;1.00;;;;;;5023484;28;20467;-73
2023/07/18 03:04:50;;;;;;;6.37;3.80;;;16.30;1.00;;;;;;5024966;28;20502;-74
2023/07/18 03:07:17;;;;;;;5.33;3.40;;;16.20;1.00;;;;;;5024017;28;20938;-73
2023/07/18 03:09:45;;;;;;;6.30;4.20;;;16.20;1.00;;;;;;5022466;28;20472;-75
2023/07/18 03:12:12;;;;;;;6.10;3.83;;;16.20;1.00;;;;;;5020951;28;20575;-74
2023/07/18 03:14:39;;;;;;;4.03;3.20;;;16.20;1.00;;;;;;5025669;28;20527;-73
2023/07/18 03:17:06;;;;;;;7.63;3.10;;;16.20;1.00;;;;;;5022936;28;20487;-74
2023/07/18 03:19:34;;;;;;;5.47;3.90;;;16.20;1.00;;;;;;5021829;28;20480;-76
2023/07/18 03:22:02;;;;;;;7.67;4.60;;;16.20;1.00;;;;;;5027104;28;20962;-72
2023/07/18 03:24:30;;;;;;;4.47;3.73;;;16.20;1.00;;;;;;5025487;28;20489;-74
2023/07/18 03:26:57;;;;;;;5.87;4.37;;;16.30;1.00;;;;;;5026606;28;20470;-74
2023/07/18 03:29:24;;;;;;;4.93;4.07;;;16.30;1.00;;;;;;5024079;28;20464;-74
2023/07/18 03:31:51;;;;;;;6.30;3.70;;;16.30;1.00;;;;;;5023919;28;20579;-73
2023/07/18 03:34:18;;;;;;;4.70;3.83;;;16.30;1.00;;;;;;5026762;28;20452;-73
2023/07/18 03:36:45;;;;;;;7.17;4.53;;;16.30;1.00;;;;;;5024098;28;20888;-74
2023/07/18 03:39:15;;;;;;;3.80;3.50;;;16.20;1.00;;;;;;5023881;28;20464;-74
2023/07/18 03:41:42;;;;;;;5.20;4.03;;;16.20;1.00;;;;;;5024022;28;20580;-74
2023/07/18 03:44:09;;;;;;;4.77;3.53;;;16.20;1.00;;;;;;5023780;28;20449;-74
2023/07/18 03:46:36;;;;;;;4.83;3.63;;;16.20;1.00;;;;;;5021368;28;20568;-74
2023/07/18 03:49:03;;;;;;;6.60;4.73;;;16.20;1.00;;;;;;5025858;28;21004;-73
2023/07/18 03:51:30;;;;;;;6.40;5.83;;;16.20;1.00;;;;;;5026401;28;20476;-73
2023/07/18 03:53:57;;;;;;;10.30;7.70;;;16.20;1.00;;;;;;5024832;28;20500;-73
2023/07/18 03:56:26;;;;;;;4.53;3.93;;;16.20;1.00;;;;;;5022049;28;20463;-72
2023/07/18 03:58:53;;;;;;;4.53;3.83;;;16.20;1.00;;;;;;5025034;28;20477;-72
2023/07/18 04:01:20;;;;;;;4.50;4.10;;;16.20;1.00;;;;;;5018964;28;21996;-73
2023/07/18 04:03:47;;;;;;;5.67;4.20;;;16.20;1.00;;;;;;5019856;28;20458;-73
2023/07/18 04:06:14;;;;;;;4.50;4.10;;;16.20;1.00;;;;;;5021129;28;20497;-73
2023/07/18 04:08:42;;;;;;;5.27;4.80;;;16.20;1.00;;;;;;5024742;28;20495;-74
2023/07/18 04:11:09;;;;;;;6.13;4.37;;;16.20;1.00;;;;;;5022125;28;20557;-74
2023/07/18 04:13:38;;;;;;;5.50;4.07;;;16.20;1.00;;;;;;5020256;28;20539;-74
2023/07/18 04:16:07;;;;;;;4.60;4.20;;;16.20;1.00;;;;;;5022163;28;20916;-73
2023/07/18 04:18:34;;;;;;;5.00;4.20;;;16.20;1.00;;;;;;5023949;28;20532;-74
2023/07/18 04:21:02;;;;;;;5.97;5.03;;;16.20;1.00;;;;;;5021250;28;20989;-74
2023/07/18 04:23:29;;;;;;;8.27;5.03;;;16.20;1.00;;;;;;5019896;28;20545;-73
2023/07/18 04:25:59;;;;;;;5.63;4.30;;;16.20;1.00;;;;;;5024900;28;20437;-74
2023/07/18 04:28:29;;;;;;;5.73;5.13;;;16.30;1.00;;;;;;5024852;28;20462;-74
2023/07/18 04:30:57;;;;;;;8.27;5.50;;;16.30;1.00;;;;;;5022974;28;20500;-74
2023/07/18 04:33:24;;;;;;;6.57;5.53;;;16.30;1.00;;;;;;5020562;28;20457;-74
2023/07/18 04:35:51;;;;;;;5.93;4.37;;;16.30;1.00;;;;;;5022147;28;20480;-74
2023/07/18 04:38:19;;;;;;;5.33;4.83;;;16.30;1.00;;;;;;5024313;28;20618;-73
2023/07/18 04:40:46;;;;;;;4.87;3.90;;;16.40;1.00;;;;;;5025220;28;20569;-73
2023/07/18 04:43:13;;;;;;;5.13;4.67;;;16.40;1.00;;;;;;5023305;28;20469;-74
2023/07/18 04:45:44;;;;;;;5.00;4.20;;;16.40;1.00;;;;;;5025688;28;20549;-73
2023/07/18 04:48:13;;;;;;;7.13;4.90;;;16.40;1.00;;;;;;5021417;28;20465;-73
2023/07/18 04:50:42;;;;;;;5.27;4.77;;;16.40;1.00;;;;;;5021040;28;20938;-74
2023/07/18 04:53:09;;;;;;;5.07;4.57;;;16.40;1.00;;;;;;5024001;28;20466;-73
2023/07/18 04:55:37;;;;;;;5.70;5.20;;;16.40;1.00;;;;;;5024718;28;20980;-73
2023/07/18 04:58:05;;;;;;;6.87;5.33;;;16.40;1.00;;;;;;5020791;28;20464;-72
2023/07/18 05:00:33;;;;;;;7.43;6.57;;;16.50;1.00;;;;;;5021317;28;20566;-73
2023/07/18 05:03:01;;;;;;;5.87;4.47;;;16.50;1.00;;;;;;5020023;28;20437;-73
2023/07/18 05:05:30;;;;;;;7.27;6.57;;;16.50;1.00;;;;;;5021039;28;20454;-73
2023/07/18 05:07:59;;;;;;;6.40;4.50;;;16.50;1.00;;;;;;5025169;28;22033;-75
2023/07/18 05:10:27;;;;;;;10.53;5.17;;;16.60;1.00;;;;;;5019909;28;20967;-73
2023/07/18 05:12:58;;;;;;;6.00;5.30;;;16.60;1.00;;;;;;5024813;28;20583;-74
2023/07/18 05:15:25;;;;;;;7.60;5.23;;;16.60;1.00;;;;;;5026407;28;20908;-73
2023/07/18 05:17:52;;;;;;;5.47;4.47;;;16.60;1.00;;;;;;5022919;28;20869;-73
2023/07/18 05:20:20;;;;;;;7.00;4.93;;;16.70;1.00;;;;;;5020813;28;20445;-74
2023/07/18 05:22:48;;;;;;;6.43;4.50;;;16.70;1.00;;;;;;5006052;28;20453;-73
2023/07/18 05:25:16;;;;;;;6.87;4.70;;;16.80;1.00;;;;;;5022117;28;20579;-75
2023/07/18 05:27:43;;;;;;;7.93;6.90;;;16.70;1.00;;;;;;5022576;28;20514;-73
2023/07/18 05:30:18;;;;;;;5.73;5.17;;;16.80;1.00;;;;;;5018171;28;20526;-74
2023/07/18 05:32:46;;;;;;;5.27;4.80;;;16.80;1.00;;;;;;5023990;28;20452;-75
2023/07/18 05:35:14;;;;;;;6.50;4.70;;;17.00;1.00;;;;;;5026010;28;20548;-75
2023/07/18 05:37:42;;;;;;;5.47;4.43;;;16.90;1.00;;;;;;5019803;28;20468;-73
2023/07/18 05:40:11;;;;;;;6.13;4.77;;;17.00;1.00;;;;;;5023581;28;20477;-74
2023/07/18 05:42:39;;;;;;;10.77;5.43;;;17.10;1.00;;;;;;5023492;28;20509;-75
2023/07/18 05:45:07;;;;;;;7.73;5.00;;;17.10;1.00;;;;;;5018249;28;20471;-74
2023/07/18 05:47:38;;;;;;;7.60;4.77;;;17.20;1.00;;;;;;5019011;28;20535;-74
2023/07/18 05:50:07;;;;;;;6.30;4.97;;;17.40;1.00;;;;;;5020038;28;20470;-76
2023/07/18 05:52:34;;;;;;;5.90;4.70;;;17.40;1.00;;;;;;5023321;28;20541;-71
2023/07/18 05:55:02;;;;;;;6.33;5.37;;;17.40;1.00;;;;;;5022326;28;20468;-71
2023/07/18 05:57:30;;;;;;;6.77;4.70;;;17.50;1.00;;;;;;5022666;28;21162;-72
2023/07/18 05:59:57;;;;;;;5.20;4.70;;;17.50;1.00;;;;;;5021803;28;20549;-71
2023/07/18 06:02:24;;;;;;;9.23;5.50;;;17.60;1.00;;;;;;4990956;28;20505;-70
2023/07/18 06:04:51;;;;;;;5.60;5.10;;;17.80;1.00;;;;;;5009111;28;20467;-72
2023/07/18 06:07:18;;;;;;;4.60;4.00;;;17.90;1.00;;;;;;4999719;28;20450;-71
2023/07/18 06:09:45;;;;;;;5.40;4.87;;;18.00;1.00;;;;;;4998900;28;20594;-71
2023/07/18 06:12:13;;;;;;;6.57;5.50;;;18.20;1.00;;;;;;4997625;28;20464;-71
2023/07/18 06:14:42;;;;;;;8.67;5.00;;;18.30;1.00;;;;;;5003422;28;21852;-73
2023/07/18 06:17:09;;;;;;;6.70;5.10;;;18.40;1.00;;;;;;5003558;28;20497;-72
2023/07/18 06:19:37;;;;;;;6.80;4.30;;;18.50;1.00;;;;;;5002826;28;20488;-71
2023/07/18 06:22:05;;;;;;;5.70;5.10;;;18.60;1.00;;;;;;4998224;28;21661;-71
2023/07/18 06:24:41;;;;;;;8.50;5.20;;;18.70;1.00;;;;;;5008667;28;20530;-75
2023/07/18 06:27:10;;;;;;;6.03;4.57;;;18.70;1.00;;;;;;5002502;28;20553;-76
2023/07/18 06:29:39;;;;;;;5.00;3.97;;;18.90;1.00;;;;;;5006867;28;20495;-73
2023/07/18 06:32:09;;;;;;;6.43;4.20;;;18.90;1.00;;;;;;5005065;28;20459;-75
2023/07/18 06:34:40;;;;;;;4.73;4.00;;;18.90;1.00;;;;;;5004101;28;20566;-78
2023/07/18 06:37:09;;;;;;;7.70;4.60;;;19.00;1.00;;;;;;5003385;28;20912;-73
2023/07/18 06:39:36;;;;;;;6.47;4.07;;;19.10;1.00;;;;;;4992747;28;20559;-75
2023/07/18 06:42:05;;;;;;;5.10;4.00;;;19.10;1.00;;;;;;5001044;28;20995;-73
2023/07/18 06:44:32;;;;;;;4.50;4.00;;;19.20;1.00;;;;;;5003722;28;20874;-70
2023/07/18 06:46:59;;;;;;;4.90;3.60;;;19.30;1.00;;;;;;4999501;28;20558;-69
2023/07/18 06:49:27;;;;;;;5.33;4.13;;;19.20;1.00;;;;;;5005735;28;20538;-70
2023/07/18 06:51:54;;;;;;;5.53;4.03;;;19.20;1.00;;;;;;5003751;28;20598;-70
2023/07/18 06:54:23;;;;;;;6.43;4.10;;;19.20;1.00;;;;;;5000750;28;20476;-71
2023/07/18 06:56:50;;;;;;;6.03;4.87;;;19.30;1.00;;;;;;5003511;28;20473;-70
2023/07/18 06:59:17;;;;;;;4.33;3.87;;;19.40;1.00;;;;;;5005128;28;20561;-69
2023/07/18 07:01:44;;;;;;;6.67;4.50;;;19.40;1.00;;;;;;5002031;28;21250;-71
2023/07/18 07:04:12;;;;;;;6.03;4.27;;;19.60;1.00;;;;;;5010407;28;21163;-71
2023/07/18 07:06:42;;;;;;;5.17;4.67;;;19.60;1.00;;;;;;5020821;28;20475;-69
2023/07/18 07:09:12;;;;;;;3.90;3.50;;;19.70;1.00;;;;;;5020360;28;21121;-69
2023/07/18 07:11:39;;;;;;;4.40;3.63;;;19.80;1.00;;;;;;5025365;28;20457;-70
2023/07/18 07:14:07;;;;;;;3.33;3.00;;;19.80;1.00;;;;;;5019653;28;20457;-70
2023/07/18 07:16:35;;;;;;;3.70;3.30;;;19.90;1.00;;;;;;5022742;28;20495;-71
2023/07/18 07:19:02;;;;;;;5.13;3.87;;;19.90;1.00;;;;;;5021247;28;20577;-71
2023/07/18 07:21:31;;;;;;;5.20;4.07;;;20.00;1.00;;;;;;5023705;28;20457;-71
2023/07/18 07:24:00;;;;;;;9.83;4.27;;;20.00;1.00;;;;;;5024311;28;20539;-71
2023/07/18 07:26:27;;;;;;;3.70;3.30;;;20.00;1.00;;;;;;5024017;28;20459;-71
2023/07/18 07:28:55;;;;;;;3.70;2.80;;;20.10;1.00;;;;;;5021337;28;20477;-70
2023/07/18 07:31:22;;;;;;;4.80;2.80;;;20.10;1.00;;;;;;5020995;28;20463;-73
2023/07/18 07:33:49;;;;;;;6.40;3.13;;;20.30;1.00;;;;;;5028609;28;20557;-71
2023/07/18 07:36:16;;;;;;;5.00;3.47;;;20.40;1.00;;;;;;5025526;28;20653;-71
2023/07/18 07:38:43;;;;;;;4.73;3.40;;;20.60;1.00;;;;;;5023471;28;20971;-70
2023/07/18 07:41:11;;;;;;;4.20;3.53;;;20.70;1.00;;;;;;5020418;28;20467;-70
2023/07/18 07:43:49;;;;;;;5.43;3.40;;;20.80;1.00;;;;;;5025344;28;20462;-70
2023/07/18 07:46:16;;;;;;;6.13;4.07;;;20.90;1.00;;;;;;5022006;28;20459;-71
2023/07/18 07:48:43;;;;;;;7.20;4.40;;;21.00;1.00;;;;;;5025161;28;20479;-71
2023/07/18 07:51:14;;;;;;;3.70;3.10;;;21.10;1.00;;;;;;5023785;28;20549;-70
2023/07/18 07:53:44;;;;;;;6.00;3.90;;;21.20;1.00;;;;;;5016182;28;20515;-70
2023/07/18 07:56:13;;;;;;;6.73;3.83;;;21.30;1.00;;;;;;5021456;28;20454;-70
2023/07/18 07:58:40;;;;;;;4.23;3.83;;;21.30;1.00;;;;;;5024974;28;20457;-71
2023/07/18 08:01:10;;;;;;;5.10;4.60;;;21.40;1.00;;;;;;5020793;28;20463;-76
2023/07/18 08:03:37;;;;;;;4.30;3.90;;;21.60;1.00;;;;;;5018637;28;20646;-69
2023/07/18 08:06:04;;;;;;;5.53;4.10;;;22.00;1.00;;;;;;5023500;28;20475;-69
2023/07/18 08:08:32;;;;;;;5.23;3.67;;;22.30;1.00;;;;;;5023879;28;20559;-73
2023/07/18 08:10:59;;;;;;;4.73;3.27;;;22.50;1.00;;;;;;5020817;28;20539;-69
2023/07/18 08:13:28;;;;;;;5.60;3.40;;;22.40;1.00;;;;;;5021958;28;20536;-70
2023/07/18 08:15:55;;;;;;;6.43;3.40;;;22.40;1.00;;;;;;5018553;28;20590;-70
2023/07/18 08:18:24;;;;;;;4.10;3.70;;;22.60;1.00;;;;;;5021251;28;20883;-69
2023/07/18 08:20:52;;;;;;;3.97;3.60;;;22.50;1.00;;;;;;5025554;28;20958;-70
2023/07/18 08:23:19;;;;;;;6.70;2.93;;;22.50;1.00;;;;;;5018895;28;22478;-71
2023/07/18 08:25:46;;;;;;;3.40;3.10;;;22.40;1.00;;;;;;5022193;28;20546;-71
2023/07/18 08:28:13;;;;;;;6.13;5.00;;;22.10;1.00;;;;;;5017768;28;20480;-71
2023/07/18 08:30:42;;;;;;;7.53;3.57;;;22.20;1.00;;;;;;5017559;28;20534;-71
2023/07/18 08:33:10;;;;;;;3.83;3.43;;;22.40;1.00;;;;;;5020901;28;20856;-70
2023/07/18 08:35:38;;;;;;;4.43;3.00;;;22.50;1.00;;;;;;5020091;28;20550;-69
2023/07/18 08:38:05;;;;;;;5.70;2.73;;;22.60;1.00;;;;;;5023997;28;20480;-70
2023/07/18 08:40:33;;;;;;;3.97;3.20;;;22.50;1.00;;;;;;5021659;28;21063;-71
2023/07/18 08:43:00;;;;;;;5.23;3.30;;;22.40;1.00;;;;;;5021305;28;20477;-74
2023/07/18 08:45:30;;;;;;;5.77;3.27;;;22.70;1.00;;;;;;5024437;28;20466;-72
2023/07/18 08:47:58;;;;;;;4.13;2.97;;;22.90;1.00;;;;;;5019727;28;20477;-71
2023/07/18 08:50:26;;;;;;;4.13;3.07;;;23.20;1.00;;;;;;5019152;28;20456;-73
2023/07/18 08:52:54;;;;;;;4.47;3.50;;;23.30;1.00;;;;;;5022871;28;20917;-71
2023/07/18 08:55:21;;;;;;;3.80;3.40;;;23.20;1.00;;;;;;5022591;28;20710;-72
2023/07/18 08:57:51;;;;;;;4.33;2.93;;;23.00;1.00;;;;;;5025846;28;21327;-73
2023/07/18 09:00:20;;;;;;;3.83;3.07;;;22.70;1.00;;;;;;5003000;28;20455;-72
2023/07/18 09:02:49;;;;;;;6.10;3.10;;;22.70;1.00;;;;;;5021655;28;20506;-73
2023/07/18 09:05:32;;;;;;;2.70;2.50;;;22.80;1.00;;;;;;5020758;28;20921;-72
2023/07/18 09:08:00;;;;;;;3.60;2.47;;;23.00;1.00;;;;;;5020424;28;20478;-72
2023/07/18 09:10:27;;;;;;;4.50;3.23;;;23.20;1.00;;;;;;5019936;28;20465;-71
2023/07/18 09:12:54;;;;;;;5.30;3.07;;;23.30;1.00;;;;;;5021359;28;20601;-71
2023/07/18 09:15:22;;;;;;;4.73;3.00;;;23.40;1.00;;;;;;5019468;28;20564;-71
2023/07/18 09:17:55;;;;;;;3.33;2.60;;;23.60;1.00;;;;;;5021376;28;20482;-70
2023/07/18 09:20:23;;;;;;;3.83;2.63;;;23.70;1.00;;;;;;5011282;28;20465;-71
2023/07/18 09:22:56;;;;;;;3.70;2.80;;;23.70;1.00;;;;;;5005870;28;20520;-71
2023/07/18 09:25:23;;;;;;;3.93;2.83;;;23.80;1.00;;;;;;5013744;28;20462;-71
2023/07/18 09:27:51;;;;;;;2.70;2.50;;;24.00;1.00;;;;;;5018023;28;20516;-72
2023/07/18 09:30:23;;;;;;;4.20;2.60;;;24.20;1.00;;;;;;5021667;28;20438;-71
2023/07/18 09:32:51;;;;;;;2.73;2.13;;;24.00;1.00;;;;;;5000228;28;20473;-71
2023/07/18 09:35:18;;;;;;;4.50;2.70;;;23.80;1.00;;;;;;5021023;28;20451;-72
2023/07/18 09:37:47;;;;;;;2.97;2.23;;;24.00;1.00;;;;;;5020763;28;20517;-71
2023/07/18 09:40:17;;;;;;;5.37;2.43;;;24.10;1.00;;;;;;5012654;28;20462;-71
2023/07/18 09:42:46;;;;;;;3.10;2.50;;;24.70;1.00;;;;;;5018830;28;20439;-72
2023/07/18 09:45:14;;;;;;;5.53;2.80;;;26.20;1.00;;;;;;5020746;28;21381;-73
2023/07/18 09:47:42;;;;;;;3.50;2.87;;;27.60;1.00;;;;;;5021756;28;20997;-73
2023/07/18 09:50:10;;;;;;;5.83;2.20;;;29.10;1.00;;;;;;5023129;28;20459;-71
2023/07/18 09:52:41;;;;;;;3.90;2.00;;;30.00;1.00;;;;;;5024511;28;20522;-73
2023/07/18 09:55:09;;;;;;;3.00;2.10;;;29.70;1.00;;;;;;5022758;28;20464;-71
2023/07/18 09:57:42;;;;;;;3.60;2.40;;;30.10;1.00;;;;;;5019878;28;20550;-70
2023/07/18 10:00:12;;;;;;;2.80;1.93;;;29.90;1.00;;;;;;5022591;28;20559;-70
2023/07/18 10:02:40;;;;;;;5.30;2.70;;;30.40;1.00;;;;;;5022788;28;20475;-71
2023/07/18 10:05:10;;;;;;;4.00;2.60;;;30.70;1.00;;;;;;5025787;28;20452;-70
2023/07/18 10:07:37;;;;;;;2.80;2.00;;;30.30;1.00;;;;;;5025358;28;21249;-71
2023/07/18 10:10:08;;;;;;;3.67;2.47;;;29.70;1.00;;;;;;5024609;28;20556;-70
2023/07/18 10:12:58;;;;;;;3.40;2.30;;;29.90;1.00;;;;;;5022254;28;20470;-71
2023/07/18 10:15:26;;;;;;;1.90;1.80;;;30.80;1.00;;;;;;5020671;28;20536;-71
2023/07/18 10:17:53;;;;;;;3.50;2.27;;;30.10;1.00;;;;;;5024036;28;20493;-73
2023/07/18 10:20:22;;;;;;;2.23;1.77;;;28.90;1.00;;;;;;5030503;28;20547;-72
2023/07/18 10:22:53;;;;;;;2.73;1.50;;;28.60;1.00;;;;;;5023332;28;20498;-71
2023/07/18 10:25:20;;;;;;;3.90;2.50;;;28.50;1.00;;;;;;5021639;28;20471;-71
2023/07/18 10:27:50;;;;;;;3.10;2.10;;;28.80;1.00;;;;;;5024979;28;20514;-71
2023/07/18 10:30:18;;;;;;;2.33;2.17;;;29.80;1.00;;;;;;5025107;28;20476;-71
2023/07/18 10:32:53;;;;;;;5.33;2.53;;;30.00;1.00;;;;;;5025700;28;20470;-72
2023/07/18 10:35:21;;;;;;;2.77;2.33;;;31.10;1.00;;;;;;5026648;28;20541;-72
2023/07/18 10:37:53;;;;;;;2.67;2.10;;;31.70;1.00;;;;;;5023900;28;20479;-72
2023/07/18 10:40:35;;;;;;;4.27;2.77;;;32.60;1.00;;;;;;5023776;28;20473;-72
2023/07/18 10:43:05;;;;;;;3.33;2.13;;;32.30;1.00;;;;;;5024892;28;20516;-71
2023/07/18 10:45:37;;;;;;;2.87;2.03;;;32.50;1.00;;;;;;5022525;28;20520;-71
2023/07/18 10:48:14;;;;;;;2.33;1.73;;;33.60;1.00;;;;;;5025909;28;20993;-71
2023/07/18 10:50:42;;;;;;;1.87;1.70;;;34.10;1.00;;;;;;5024025;28;20474;-72
2023/07/18 10:53:12;;;;;;;3.80;2.20;;;34.80;1.00;;;;;;5025514;28;20452;-71
2023/07/18 10:55:39;;;;;;;3.23;2.80;;;34.90;1.00;;;;;;5025589;28;20464;-71
2023/07/18 10:58:15;;;;;;;4.20;2.23;;;33.30;1.00;;;;;;5025895;28;20485;-71
2023/07/18 11:00:42;;;;;;;2.10;1.70;;;33.40;1.00;;;;;;5012052;28;20472;-71
2023/07/18 11:03:19;;;;;;;2.43;2.03;;;34.40;1.00;;;;;;5020837;28;20461;-71
2023/07/18 11:05:49;;;;;;;3.93;1.90;;;34.40;1.00;;;;;;5020006;28;20453;-71
2023/07/18 11:08:26;;;;;;;1.67;1.23;;;32.90;1.00;;;;;;5021361;28;20473;-72
2023/07/18 11:10:55;;;;;;;2.30;1.50;;;31.70;1.00;;;;;;5023014;28;20452;-74
2023/07/18 11:13:29;;;;;;;2.40;2.20;;;32.60;1.00;;;;;;5024919;28;20469;-72
2023/07/18 11:15:59;;;;;;;2.40;1.93;;;34.40;1.00;;;;;;5021925;28;20446;-74
2023/07/18 11:18:26;;;;;;;1.60;1.47;;;35.50;1.00;;;;;;5026287;28;20474;-75
2023/07/18 11:20:54;;;;;;;4.17;2.10;;;36.10;1.00;;;;;;5026771;28;20507;-77
2023/07/18 11:23:21;;;;;;;3.10;1.60;;;37.10;1.00;;;;;;5027198;28;20463;-75
2023/07/18 11:25:48;;;;;;;4.17;1.90;;;37.90;1.00;;;;;;5019163;28;21381;-74
2023/07/18 11:28:16;;;;;;;1.73;1.60;;;37.40;1.00;;;;;;5026426;28;20993;-75
2023/07/18 11:30:46;;;;;;;1.80;1.43;;;37.80;1.00;;;;;;5024490;28;21329;-77
2023/07/18 11:33:13;;;;;;;1.90;1.77;;;38.10;1.00;;;;;;5022575;28;20543;-78
2023/07/18 11:35:45;;;;;;;5.07;2.17;;;37.80;1.00;;;;;;5028660;28;20540;-76
2023/07/18 11:38:17;;;;;;;2.40;2.00;;;36.70;1.00;;;;;;5026985;28;20478;-78
2023/07/18 11:40:44;;;;;;;1.73;1.63;;;35.40;1.00;;;;;;5024024;28;20457;-77
2023/07/18 11:43:18;;;;;;;2.90;2.20;;;33.90;1.00;;;;;;5026240;28;20461;-77
2023/07/18 11:45:47;;;;;;;3.33;1.87;;;33.10;1.00;;;;;;5027639;28;20603;-78
2023/07/18 11:48:15;;;;;;;3.30;2.23;;;32.40;1.00;;;;;;5024040;28;20508;-76
2023/07/18 11:50:45;;;;;;;4.97;3.47;;;33.10;1.00;;;;;;5030139;28;20502;-77
2023/07/18 11:53:12;;;;;;;3.47;2.40;;;34.70;1.00;;;;;;5023064;28;20483;-78
2023/07/18 11:55:39;;;;;;;2.43;1.67;;;36.20;1.00;;;;;;5023908;28;20711;-78
2023/07/18 11:58:07;;;;;;;2.33;1.80;;;36.60;1.00;;;;;;5026358;28;20500;-74
2023/07/18 12:00:36;;;;;;;3.80;1.63;;;36.90;1.00;;;;;;5025542;28;21025;-75
2023/07/18 12:03:05;;;;;;;2.23;1.70;;;36.80;1.00;;;;;;5022163;28;20479;-74
2023/07/18 12:05:32;;;;;;;3.23;2.17;;;36.30;1.00;;;;;;5022712;28;20457;-74
2023/07/18 12:07:59;;;;;;;3.30;1.83;;;36.50;1.00;;;;;;5023856;28;20567;-74
2023/07/18 12:10:26;;;;;;;2.30;1.90;;;37.30;1.00;;;;;;5025030;28;20566;-75
2023/07/18 12:12:53;;;;;;;2.47;1.70;;;37.20;1.00;;;;;;5021288;28;20449;-73
2023/07/18 12:15:20;;;;;;;2.30;1.80;;;37.70;1.00;;;;;;5021006;28;20575;-74
2023/07/18 12:17:47;;;;;;;1.63;1.53;;;38.10;1.00;;;;;;5025457;28;20605;-76
2023/07/18 12:20:16;;;;;;;3.30;1.90;;;37.60;1.00;;;;;;5023492;28;20494;-76
2023/07/18 12:22:43;;;;;;;3.10;1.93;;;37.60;1.00;;;;;;5022081;28;20540;-74
2023/07/18 12:25:10;;;;;;;2.90;2.10;;;37.70;1.00;;;;;;5024041;28;21300;-74
2023/07/18 12:27:38;;;;;;;2.20;1.80;;;38.40;1.00;;;;;;5024085;28;20528;-73
2023/07/18 12:30:08;;;;;;;2.00;1.80;;;39.10;1.00;;;;;;5027556;28;20960;-74
2023/07/18 12:32:35;;;;;;;2.40;1.87;;;39.40;1.00;;;;;;5004527;28;20896;-73
2023/07/18 12:35:03;;;;;;;2.60;1.93;;;38.80;1.00;;;;;;5025560;28;20453;-74
2023/07/18 12:37:31;;;;;;;2.90;2.00;;;38.40;1.00;;;;;;5024247;28;20477;-75
2023/07/18 12:39:58;;;;;;;2.90;2.10;;;36.60;1.00;;;;;;5024572;28;20583;-75
2023/07/18 12:42:25;;;;;;;1.80;1.67;;;35.30;1.00;;;;;;5025371;28;20497;-74
2023/07/18 12:44:52;;;;;;;2.20;1.60;;;35.60;1.00;;;;;;5025022;28;20461;-75
2023/07/18 12:47:19;;;;;;;2.57;1.83;;;36.20;1.00;;;;;;5021400;28;21151;-74
2023/07/18 12:49:46;;;;;;;1.83;1.70;;;35.40;1.00;;;;;;5025053;28;20544;-74
2023/07/18 12:52:13;;;;;;;3.03;2.10;;;34.30;1.00;;;;;;5021153;28;20461;-74
2023/07/18 12:54:43;;;;;;;2.20;1.90;;;35.10;1.00;;;;;;5020748;28;20470;-75
2023/07/18 12:57:10;;;;;;;2.13;1.43;;;36.90;1.00;;;;;;5024082;28;20562;-73
2023/07/18 12:59:37;;;;;;;4.47;4.07;;;37.50;1.00;;;;;;5027181;28;20469;-75
2023/07/18 13:02:05;;;;;;;3.23;2.10;;;37.90;1.00;;;;;;5020377;28;20469;-74